createdAt,value
2017-02-07T00:00:17.479Z,2
2017-02-07T00:10:29.245Z,1.9
2017-02-07T00:20:41.006Z,1.9
2017-02-07T00:30:52.745Z,1.9
2017-02-07T00:41:04.547Z,1.9
2017-02-07T00:51:16.337Z,1.7
2017-02-07T01:01:28.122Z,1.7
2017-02-07T01:11:39.944Z,1.7
2017-02-07T01:21:51.782Z,1.7
2017-02-07T01:32:03.529Z,1.6
2017-02-07T01:42:15.415Z,1.4
2017-02-07T01:52:27.321Z,1.4
2017-02-07T02:02:39.202Z,1.4
2017-02-07T02:12:51.088Z,1.4
2017-02-07T02:23:03.016Z,1.4
2017-02-07T02:33:14.928Z,1.3
2017-02-07T02:43:26.789Z,1.4
2017-02-07T02:53:38.670Z,1.2
2017-02-07T03:03:50.606Z,1.2
2017-02-07T03:14:02.522Z,1.1
2017-02-07T03:24:14.491Z,1
2017-02-07T03:34:26.479Z,0.8
2017-02-07T03:44:38.454Z,0.7
2017-02-07T03:54:50.494Z,0.7
2017-02-07T04:05:02.512Z,0.9
2017-02-07T04:15:14.533Z,0.7
2017-02-07T04:25:26.541Z,0.8
2017-02-07T04:35:38.511Z,0.7
2017-02-07T04:45:50.505Z,0.7
2017-02-07T04:56:02.500Z,0.7
2017-02-07T05:06:14.534Z,0.8
2017-02-07T05:16:26.563Z,0.8
2017-02-07T05:26:38.600Z,0.8
2017-02-07T05:36:50.654Z,0.8
2017-02-07T05:47:02.735Z,0.8
2017-02-07T05:57:14.787Z,0.7
2017-02-07T06:07:26.854Z,0.7
2017-02-07T06:17:38.914Z,0.8
2017-02-07T06:27:50.949Z,0.7
2017-02-07T06:38:03.034Z,0.7
2017-02-07T06:48:15.147Z,0.7
2017-02-07T06:58:27.201Z,0.9
2017-02-07T07:08:39.242Z,0.9
2017-02-07T07:18:51.274Z,1
2017-02-07T07:29:03.289Z,0.9
2017-02-07T07:39:15.316Z,0.9
2017-02-07T07:49:27.278Z,1
2017-02-07T07:59:39.218Z,1
2017-02-07T08:09:51.091Z,1.2
2017-02-07T08:20:02.954Z,1.2
2017-02-07T08:30:14.891Z,1.1
2017-02-07T08:40:26.655Z,1.1
2017-02-07T08:50:38.524Z,1.1
2017-02-07T09:00:50.290Z,1.2
2017-02-07T09:11:02.080Z,1.1
2017-02-07T09:21:13.780Z,1.2
2017-02-07T09:31:25.486Z,1.2
2017-02-07T09:41:37.174Z,1.3
2017-02-07T09:51:48.858Z,1.3
2017-02-07T10:02:00.573Z,1.3
2017-02-07T10:12:12.264Z,1.2
2017-02-07T10:22:23.978Z,1.2
2017-02-07T10:32:35.779Z,1.2
2017-02-07T10:42:47.576Z,1.2
2017-02-07T10:52:59.369Z,0.9
2017-02-07T11:03:11.209Z,0.8
2017-02-07T11:13:23.042Z,0.7
2017-02-07T11:23:34.908Z,0.8
2017-02-07T11:33:46.794Z,0.9
2017-02-07T11:43:58.633Z,1.1
2017-02-07T11:54:10.456Z,1.2
2017-02-07T12:04:22.270Z,1.1
2017-02-07T12:14:34.124Z,1.1
2017-02-07T12:24:45.960Z,1.1
2017-02-07T12:34:57.750Z,0.9
2017-02-07T12:45:09.609Z,0.9
2017-02-07T12:55:21.469Z,0.9
2017-02-07T13:05:33.338Z,0.8
2017-02-07T13:15:45.199Z,0.7
2017-02-07T13:25:57.020Z,0.7
2017-02-07T13:36:08.904Z,0.7
2017-02-07T13:46:20.879Z,0.6
2017-02-07T13:56:32.710Z,0.4
2017-02-07T14:06:44.778Z,0.3
2017-02-07T14:16:56.567Z,0.3
2017-02-07T14:27:08.537Z,0.3
2017-02-07T14:37:20.555Z,0.3
2017-02-07T14:47:32.556Z,0.2
2017-02-07T14:57:44.524Z,0.3
2017-02-07T15:07:56.568Z,0.1
2017-02-07T15:18:08.603Z,0.2
2017-02-07T15:28:20.607Z,0.1
2017-02-07T15:38:32.658Z,0.1
2017-02-07T15:48:44.682Z,0.1
2017-02-07T15:58:56.763Z,-0.1
2017-02-07T16:09:08.825Z,0
2017-02-07T16:19:20.914Z,0
2017-02-07T16:29:33.074Z,0
2017-02-07T16:39:45.251Z,0
2017-02-07T16:49:57.374Z,0
2017-02-07T17:00:09.490Z,0
2017-02-07T17:10:21.650Z,0
2017-02-07T17:20:33.769Z,-0.1
2017-02-07T17:30:45.886Z,0
2017-02-07T17:40:57.943Z,0
2017-02-07T17:51:10.061Z,-0.1
2017-02-07T18:01:22.195Z,-0.1
2017-02-07T18:11:34.321Z,0
2017-02-07T18:21:46.420Z,-0.1
2017-02-07T18:31:58.555Z,-0.1
2017-02-07T18:42:10.717Z,-0.1
2017-02-07T18:52:22.823Z,-0.2
2017-02-07T19:02:34.873Z,-0.1
2017-02-07T19:12:47.018Z,-0.2
2017-02-07T19:22:59.141Z,-0.2
2017-02-07T19:33:11.269Z,-0.2
2017-02-07T19:43:23.432Z,-0.2
2017-02-07T19:53:35.606Z,-0.2
2017-02-07T20:03:47.769Z,-0.2
2017-02-07T20:13:59.910Z,-0.2
2017-02-07T20:24:12.035Z,-0.3
2017-02-07T20:34:24.201Z,-0.2
2017-02-07T20:44:36.396Z,-0.2
2017-02-07T20:54:48.509Z,-0.3
2017-02-07T21:05:00.632Z,-0.3
2017-02-07T21:15:12.698Z,-0.3
2017-02-07T21:25:24.827Z,-0.2
2017-02-07T21:35:36.928Z,-0.2
2017-02-07T21:45:49.032Z,-0.2
2017-02-07T21:56:01.153Z,-0.2
2017-02-07T22:06:13.284Z,-0.2
2017-02-07T22:16:25.433Z,-0.2
2017-02-07T22:26:37.621Z,-0.2
2017-02-07T22:36:49.803Z,-0.1
2017-02-07T22:47:02.036Z,-0.2
2017-02-07T22:57:14.246Z,-0.1
2017-02-07T23:07:26.447Z,-0.2
2017-02-07T23:17:38.600Z,-0.2
2017-02-07T23:27:50.770Z,-0.2
2017-02-07T23:38:02.930Z,-0.2
2017-02-07T23:48:15.093Z,-0.2
2017-02-07T23:58:27.269Z,-0.1
